Time;durP1;ratioP1;P1;durP2;ratioP2;P2;SDS_P1;SDS_P2;PMS_P1;PMS_P2;Temp;Humidity;BMP_temperature;BMP_pressure;BME280_temperature;BME280_humidity;BME280_pressure;Samples;Min_cycle;Max_cycle;Signal;HPM_P1;HPM_P2
2024/03/21 00:00:09;;;;;;;;;;;;;;;10.95;80.26;101268.63;6185566;23;19920;-78
2024/03/21 00:02:35;;;;;;;;;;;;;;;10.88;80.59;101268.25;6192274;23;19920;-79
2024/03/21 00:05:02;;;;;;;;;;;;;;;10.85;80.50;101265.03;6184961;23;20297;-79
2024/03/21 00:07:29;;;;;;;;;;;;;;;10.83;80.40;101270.44;6186181;23;20149;-79
2024/03/21 00:09:56;;;;;;;;;;;;;;;10.75;80.90;101256.09;6189191;23;19979;-78
2024/03/21 00:12:21;;;;;;;;;;;;;;;10.77;80.88;101259.50;6193071;23;19928;-80
2024/03/21 00:14:48;;;;;;;;;;;;;;;10.78;80.55;101261.16;6192976;23;20238;-78
2024/03/21 00:17:13;;;;;;;;;;;;;;;10.36;83.11;101251.16;6192607;23;20179;-79
2024/03/21 00:19:39;;;;;;;;;;;;;;;10.16;84.62;101264.16;6191401;23;20015;-78
2024/03/21 00:22:05;;;;;;;;;;;;;;;10.08;84.75;101257.63;6185087;23;19928;-79
2024/03/21 00:24:37;;;;;;;;;;;;;;;10.07;85.15;101260.41;6184708;23;20285;-80
2024/03/21 00:27:03;;;;;;;;;;;;;;;10.04;84.98;101261.47;6185850;23;19961;-79
2024/03/21 00:29:29;;;;;;;;;;;;;;;10.04;84.68;101258.81;6185519;23;19944;-78
2024/03/21 00:31:55;;;;;;;;;;;;;;;10.10;84.57;101265.47;6185889;23;19928;-79
2024/03/21 00:34:21;;;;;;;;;;;;;;;10.13;84.25;101263.44;6185410;23;20209;-80
2024/03/21 00:36:47;;;;;;;;;;;;;;;10.04;84.46;101264.09;6185425;23;19952;-79
2024/03/21 00:39:18;;;;;;;;;;;;;;;10.01;84.43;101267.00;6184448;23;19931;-79
2024/03/21 00:41:45;;;;;;;;;;;;;;;9.95;84.67;101272.72;6185103;23;19935;-79
2024/03/21 00:44:11;;;;;;;;;;;;;;;9.90;84.55;101274.88;6184028;23;19981;-79
2024/03/21 00:46:37;;;;;;;;;;;;;;;9.76;85.54;101273.25;6183703;23;19920;-79
2024/03/21 00:49:03;;;;;;;;;;;;;;;9.64;85.99;101268.88;6182788;23;19978;-78
2024/03/21 00:51:31;;;;;;;;;;;;;;;9.65;85.81;101281.16;6183498;23;19959;-78
2024/03/21 00:53:57;;;;;;;;;;;;;;;9.64;86.13;101290.00;6186303;22;19944;-78
2024/03/21 00:56:23;;;;;;;;;;;;;;;9.77;85.48;101282.03;6186331;23;19921;-78
2024/03/21 00:58:51;;;;;;;;;;;;;;;9.84;85.21;101283.28;6188481;23;19920;-79
2024/03/21 01:01:16;;;;;;;;;;;;;;;9.83;85.51;101281.59;6187800;23;19991;-78
2024/03/21 01:03:43;;;;;;;;;;;;;;;9.80;85.68;101285.28;6188345;23;19920;-78
2024/03/21 01:06:08;;;;;;;;;;;;;;;9.79;86.02;101285.41;6190076;23;19966;-79
2024/03/21 01:08:35;;;;;;;;;;;;;;;9.68;86.66;101280.91;6191125;23;19921;-80
2024/03/21 01:11:01;;;;;;;;;;;;;;;9.69;86.58;101290.53;6190564;23;20361;-79
2024/03/21 01:13:27;;;;;;;;;;;;;;;9.75;86.11;101286.59;6191265;23;19952;-79
2024/03/21 01:15:54;;;;;;;;;;;;;;;9.71;86.01;101283.31;6189953;23;19920;-80
2024/03/21 01:18:25;;;;;;;;;;;;;;;9.77;86.25;101293.44;6188802;23;19967;-80
2024/03/21 01:20:51;;;;;;;;;;;;;;;9.81;86.09;101296.72;6187286;23;19982;-80
2024/03/21 01:23:17;;;;;;;;;;;;;;;9.72;87.53;101300.88;6186353;23;19924;-79
2024/03/21 01:25:43;;;;;;;;;;;;;;;9.81;87.13;101294.06;6187620;23;19959;-80
2024/03/21 01:28:09;;;;;;;;;;;;;;;9.87;86.80;101294.47;6186409;23;19920;-80
2024/03/21 01:30:34;;;;;;;;;;;;;;;9.82;87.26;101301.91;6186724;23;19924;-80
2024/03/21 01:33:03;;;;;;;;;;;;;;;9.87;87.46;101301.56;6187217;23;20267;-80
2024/03/21 01:35:28;;;;;;;;;;;;;;;9.99;86.76;101303.28;6187499;23;19988;-80
2024/03/21 01:37:56;;;;;;;;;;;;;;;10.13;86.26;101311.06;6187678;23;19928;-80
2024/03/21 01:40:22;;;;;;;;;;;;;;;10.24;85.80;101314.69;6185535;23;20301;-79
2024/03/21 01:42:49;;;;;;;;;;;;;;;10.26;85.89;101313.63;6186322;23;19920;-80
2024/03/21 01:45:14;;;;;;;;;;;;;;;10.32;85.78;101312.34;6184857;23;19928;-80
2024/03/21 01:47:42;;;;;;;;;;;;;;;10.42;85.77;101307.19;6184859;23;20366;-80
2024/03/21 01:50:09;;;;;;;;;;;;;;;10.37;85.81;101308.38;6187144;23;20260;-80
2024/03/21 01:52:36;;;;;;;;;;;;;;;10.32;86.36;101307.06;6185885;22;19921;-79
2024/03/21 01:55:03;;;;;;;;;;;;;;;10.32;86.25;101313.19;6185341;23;19951;-80
2024/03/21 01:57:30;;;;;;;;;;;;;;;10.38;86.46;101314.50;6185223;22;20348;-79
2024/03/21 01:59:58;;;;;;;;;;;;;;;10.50;85.75;101315.41;6187206;23;19927;-81
2024/03/21 02:02:24;;;;;;;;;;;;;;;10.51;86.01;101323.22;6185543;23;19995;-80
2024/03/21 02:04:49;;;;;;;;;;;;;;;10.50;85.91;101315.41;6184046;23;19966;-79
2024/03/21 02:07:18;;;;;;;;;;;;;;;10.47;86.48;101318.28;6183886;23;19920;-78
2024/03/21 02:09:43;;;;;;;;;;;;;;;10.45;86.37;101318.41;6182548;23;19943;-79
2024/03/21 02:12:10;;;;;;;;;;;;;;;10.41;86.38;101309.00;6182254;23;19920;-80
2024/03/21 02:14:36;;;;;;;;;;;;;;;10.40;86.27;101304.66;6182952;23;19920;-79
2024/03/21 02:17:03;;;;;;;;;;;;;;;10.44;86.49;101305.25;6182386;23;19927;-80
2024/03/21 02:19:29;;;;;;;;;;;;;;;10.43;86.42;101304.41;6180035;23;19958;-79
2024/03/21 02:24:41;;;;;;;;;;;;;;;10.45;86.38;101313.09;6182369;23;19931;-79
2024/03/21 02:27:07;;;;;;;;;;;;;;;10.52;86.30;101316.94;6183326;23;19928;-79
2024/03/21 02:29:33;;;;;;;;;;;;;;;10.44;86.75;101321.97;6180467;23;20300;-79
2024/03/21 02:31:59;;;;;;;;;;;;;;;10.38;86.89;101325.94;6180111;23;19924;-78
2024/03/21 02:34:25;;;;;;;;;;;;;;;10.36;87.39;101329.69;6181583;23;19921;-80
2024/03/21 02:36:51;;;;;;;;;;;;;;;10.39;87.57;101324.13;6184052;22;20316;-79
2024/03/21 02:39:18;;;;;;;;;;;;;;;10.41;87.47;101324.03;6183457;23;19920;-79
2024/03/21 02:41:44;;;;;;;;;;;;;;;10.40;87.83;101319.69;6182087;23;19921;-79
2024/03/21 02:44:09;;;;;;;;;;;;;;;10.44;87.59;101321.13;6182150;23;19970;-78
2024/03/21 02:46:38;;;;;;;;;;;;;;;10.45;87.39;101318.41;6181961;23;19921;-81
2024/03/21 02:49:03;;;;;;;;;;;;;;;10.47;87.44;101316.47;6181259;23;19931;-78
2024/03/21 02:51:30;;;;;;;;;;;;;;;10.47;87.38;101310.34;6181034;23;19959;-78
2024/03/21 02:53:55;;;;;;;;;;;;;;;10.57;86.56;101316.59;6180491;23;19956;-79
2024/03/21 02:56:23;;;;;;;;;;;;;;;10.52;87.00;101318.75;6183391;23;19932;-80
2024/03/21 02:58:48;;;;;;;;;;;;;;;10.50;87.24;101321.53;6183785;23;19982;-78
2024/03/21 03:01:15;;;;;;;;;;;;;;;10.56;86.70;101318.41;6183019;23;20307;-78
2024/03/21 03:03:40;;;;;;;;;;;;;;;10.48;87.10;101320.78;6183794;23;19924;-77
2024/03/21 03:06:07;;;;;;;;;;;;;;;10.46;87.77;101324.53;6183521;23;19926;-79
2024/03/21 03:08:32;;;;;;;;;;;;;;;10.39;87.85;101324.13;6182336;22;19962;-78
2024/03/21 03:10:58;;;;;;;;;;;;;;;10.42;87.69;101318.63;6182900;23;19920;-79
2024/03/21 03:13:25;;;;;;;;;;;;;;;10.45;87.60;101314.91;6182896;23;20068;-78
2024/03/21 03:15:51;;;;;;;;;;;;;;;10.40;87.75;101320.53;6183712;23;20345;-80
2024/03/21 03:18:17;;;;;;;;;;;;;;;10.40;87.97;101330.25;6184302;23;19952;-80
2024/03/21 03:20:43;;;;;;;;;;;;;;;10.30;88.68;101325.66;6184336;23;19927;-79
2024/03/21 03:23:09;;;;;;;;;;;;;;;10.36;88.57;101325.22;6183983;23;19946;-79
2024/03/21 03:25:39;;;;;;;;;;;;;;;10.29;88.76;101329.28;6185127;22;19969;-81
2024/03/21 03:28:05;;;;;;;;;;;;;;;10.22;89.42;101338.59;6184314;23;20314;-79
2024/03/21 03:30:33;;;;;;;;;;;;;;;10.31;88.95;101345.91;6184537;23;19920;-79
2024/03/21 03:33:04;;;;;;;;;;;;;;;10.28;89.35;101345.28;6183278;23;19928;-78
2024/03/21 03:35:40;;;;;;;;;;;;;;;10.33;89.16;101351.91;6183156;23;19943;-79
2024/03/21 03:38:08;;;;;;;;;;;;;;;10.37;88.99;101355.16;6183297;23;19920;-79
2024/03/21 03:40:34;;;;;;;;;;;;;;;10.41;88.98;101353.97;6182750;23;19968;-79
2024/03/21 03:43:01;;;;;;;;;;;;;;;10.40;89.28;101362.84;6183169;23;19952;-78
2024/03/21 03:45:27;;;;;;;;;;;;;;;10.35;89.59;101359.72;6182511;23;19955;-79
2024/03/21 03:47:55;;;;;;;;;;;;;;;10.35;89.78;101365.00;6184081;23;20302;-79
2024/03/21 03:50:21;;;;;;;;;;;;;;;10.32;90.06;101375.84;6188171;23;19921;-78
2024/03/21 03:52:47;;;;;;;;;;;;;;;10.31;90.35;101380.28;6197975;23;19920;-77
2024/03/21 03:55:13;;;;;;;;;;;;;;;10.30;90.48;101385.69;6195578;23;19924;-78
2024/03/21 03:57:39;;;;;;;;;;;;;;;10.34;90.41;101390.63;6195856;22;19932;-78
2024/03/21 04:00:06;;;;;;;;;;;;;;;10.24;91.23;101388.75;6195007;23;19920;-77
2024/03/21 04:02:34;;;;;;;;;;;;;;;10.18;91.16;101395.34;6185765;23;19928;-79
2024/03/21 04:05:00;;;;;;;;;;;;;;;10.15;91.72;101398.22;6180163;23;20341;-79
2024/03/21 04:07:27;;;;;;;;;;;;;;;10.15;91.78;101394.72;6179918;23;19974;-79
2024/03/21 04:09:53;;;;;;;;;;;;;;;10.16;92.01;101385.81;6182263;23;19977;-79
2024/03/21 04:12:19;;;;;;;;;;;;;;;10.16;92.05;101388.47;6180333;23;20305;-79
2024/03/21 04:14:48;;;;;;;;;;;;;;;10.03;92.63;101386.72;6180221;23;19928;-79
2024/03/21 04:17:14;;;;;;;;;;;;;;;10.00;93.19;101389.59;6180990;23;20003;-79
2024/03/21 04:19:40;;;;;;;;;;;;;;;10.08;93.16;101387.22;6180787;23;20315;-79
2024/03/21 04:22:07;;;;;;;;;;;;;;;10.18;92.57;101394.47;6180696;23;19995;-78
2024/03/21 04:24:33;;;;;;;;;;;;;;;10.24;92.19;101396.69;6182270;23;19927;-79
2024/03/21 04:26:59;;;;;;;;;;;;;;;10.29;92.02;101397.22;6184236;23;19921;-79
2024/03/21 04:29:25;;;;;;;;;;;;;;;10.26;92.15;101403.56;6184621;23;20182;-80
2024/03/21 04:31:51;;;;;;;;;;;;;;;10.31;92.29;101411.16;6185142;23;19935;-81
2024/03/21 04:34:17;;;;;;;;;;;;;;;10.35;92.02;101421.41;6183923;23;19927;-79
2024/03/21 04:36:42;;;;;;;;;;;;;;;10.37;91.72;101427.44;6185134;23;20305;-79
2024/03/21 04:39:10;;;;;;;;;;;;;;;10.42;91.47;101429.75;6183984;23;19932;-80
2024/03/21 04:41:36;;;;;;;;;;;;;;;10.47;91.13;101447.94;6183037;23;19969;-80
2024/03/21 04:44:02;;;;;;;;;;;;;;;10.44;91.83;101456.94;6182431;23;19920;-80
2024/03/21 04:46:29;;;;;;;;;;;;;;;10.49;91.45;101462.75;6183359;23;20241;-79
2024/03/21 04:48:55;;;;;;;;;;;;;;;10.53;91.58;101461.56;6183924;22;19999;-79
2024/03/21 04:51:24;;;;;;;;;;;;;;;10.57;91.38;101464.81;6182729;23;19999;-79
2024/03/21 04:53:50;;;;;;;;;;;;;;;10.52;91.29;101462.50;6183082;23;20336;-79
2024/03/21 04:56:17;;;;;;;;;;;;;;;10.50;91.63;101460.97;6178475;23;19967;-80
2024/03/21 04:58:43;;;;;;;;;;;;;;;10.49;91.55;101457.47;6180495;23;19987;-79
2024/03/21 05:01:09;;;;;;;;;;;;;;;10.52;91.39;101462.50;6181320;23;19955;-79
2024/03/21 05:03:37;;;;;;;;;;;;;;;10.39;92.10;101461.72;6180864;23;20264;-80
2024/03/21 05:06:03;;;;;;;;;;;;;;;10.42;91.95;101461.50;6181368;23;19970;-79
2024/03/21 05:08:29;;;;;;;;;;;;;;;10.45;91.62;101466.59;6183603;23;19925;-79
2024/03/21 05:10:55;;;;;;;;;;;;;;;10.48;91.64;101471.63;6180874;23;20019;-80
2024/03/21 05:13:23;;;;;;;;;;;;;;;10.47;91.57;101475.25;6181645;23;19925;-79
2024/03/21 05:15:48;;;;;;;;;;;;;;;10.52;91.38;101481.03;6181115;23;19927;-79
2024/03/21 05:18:15;;;;;;;;;;;;;;;10.55;91.12;101499.34;6180192;22;20349;-79
2024/03/21 05:20:40;;;;;;;;;;;;;;;10.47;91.56;101483.19;6180587;23;19920;-78
2024/03/21 05:23:07;;;;;;;;;;;;;;;10.35;92.19;101479.63;6183420;23;19969;-79
2024/03/21 05:25:34;;;;;;;;;;;;;;;10.21;92.72;101486.84;6181960;23;19946;-80
2024/03/21 05:28:00;;;;;;;;;;;;;;;10.27;92.48;101494.38;6183241;22;20003;-79
2024/03/21 05:30:27;;;;;;;;;;;;;;;10.18;92.84;101495.00;6179629;23;19959;-79
2024/03/21 05:32:54;;;;;;;;;;;;;;;10.21;92.61;101492.97;6180856;23;19920;-80
2024/03/21 05:35:19;;;;;;;;;;;;;;;10.06;93.01;101505.50;6180903;23;19954;-79
2024/03/21 05:37:45;;;;;;;;;;;;;;;9.98;93.63;101515.78;6180190;23;19921;-80
2024/03/21 05:40:12;;;;;;;;;;;;;;;9.94;93.42;101510.81;6178722;23;19959;-79
2024/03/21 05:42:38;;;;;;;;;;;;;;;9.87;93.38;101513.06;6181322;22;20037;-80
2024/03/21 05:45:04;;;;;;;;;;;;;;;9.76;94.11;101507.66;6182873;23;19963;-79
2024/03/21 05:47:32;;;;;;;;;;;;;;;9.80;93.83;101517.06;6182542;23;19920;-80
2024/03/21 05:49:57;;;;;;;;;;;;;;;9.77;94.30;101522.56;6180431;23;19940;-78
2024/03/21 05:52:24;;;;;;;;;;;;;;;9.74;94.38;101528.09;6182663;23;19928;-79
2024/03/21 05:54:49;;;;;;;;;;;;;;;9.61;94.95;101528.94;6182324;23;19927;-79
2024/03/21 05:57:16;;;;;;;;;;;;;;;9.56;95.00;101520.47;6182938;22;19945;-79
2024/03/21 05:59:41;;;;;;;;;;;;;;;9.55;95.43;101542.56;6182743;23;20015;-79
2024/03/21 06:02:08;;;;;;;;;;;;;;;9.56;95.32;101535.50;6185228;23;19920;-79
2024/03/21 06:04:35;;;;;;;;;;;;;;;9.54;95.43;101548.78;6186191;23;19924;-80
2024/03/21 06:07:01;;;;;;;;;;;;;;;9.51;95.27;101550.78;6182075;23;19932;-79
2024/03/21 06:09:28;;;;;;;;;;;;;;;9.48;95.02;101554.50;6182269;23;19959;-79
2024/03/21 06:11:55;;;;;;;;;;;;;;;9.54;94.54;101562.00;6184823;23;19924;-79
2024/03/21 06:14:20;;;;;;;;;;;;;;;9.68;93.94;101568.97;6184397;23;19955;-79
2024/03/21 06:16:47;;;;;;;;;;;;;;;9.88;92.87;101568.47;6185190;22;19920;-79
2024/03/21 06:19:12;;;;;;;;;;;;;;;10.09;91.81;101570.59;6184781;23;19944;-80
2024/03/21 06:21:40;;;;;;;;;;;;;;;10.17;91.05;101583.25;6185928;23;19974;-79
2024/03/21 06:24:08;;;;;;;;;;;;;;;10.23;91.18;101586.31;6185930;23;19943;-80
2024/03/21 06:26:41;;;;;;;;;;;;;;;10.23;91.18;101594.25;6186593;23;19947;-81
2024/03/21 06:29:09;;;;;;;;;;;;;;;10.32;91.10;101596.28;6187227;23;20359;-82
2024/03/21 06:31:35;;;;;;;;;;;;;;;10.37;90.92;101593.31;6186407;22;19928;-82
2024/03/21 06:34:02;;;;;;;;;;;;;;;10.47;90.14;101596.13;6185030;22;20104;-79
2024/03/21 06:36:28;;;;;;;;;;;;;;;10.46;89.78;101597.94;6178280;23;20427;-80
2024/03/21 06:38:55;;;;;;;;;;;;;;;10.47;89.93;101591.69;6182712;23;20302;-80
2024/03/21 06:41:21;;;;;;;;;;;;;;;10.55;89.77;101594.63;6182767;23;19932;-82
2024/03/21 06:43:47;;;;;;;;;;;;;;;10.70;89.19;101600.63;6184868;23;20291;-80
2024/03/21 06:46:13;;;;;;;;;;;;;;;10.90;88.23;101609.78;6185286;22;20218;-79
2024/03/21 06:48:38;;;;;;;;;;;;;;;10.86;88.41;101609.16;6185896;23;19947;-78
2024/03/21 06:51:07;;;;;;;;;;;;;;;11.00;88.01;101605.47;6189543;23;19932;-81
2024/03/21 06:53:32;;;;;;;;;;;;;;;11.06;87.57;101598.88;6188948;23;20246;-80
2024/03/21 06:56:00;;;;;;;;;;;;;;;11.12;87.14;101607.25;6185902;23;19924;-80
2024/03/21 06:58:26;;;;;;;;;;;;;;;11.73;84.93;101599.09;6186164;23;19924;-80
2024/03/21 07:00:53;;;;;;;;;;;;;;;12.15;81.94;101612.69;6185471;23;19970;-80
2024/03/21 07:03:19;;;;;;;;;;;;;;;11.67;84.48;101610.19;6185458;23;19931;-78
2024/03/21 07:05:46;;;;;;;;;;;;;;;11.61;84.85;101611.50;6186212;23;19924;-81
2024/03/21 07:08:11;;;;;;;;;;;;;;;11.58;84.61;101617.03;6186975;23;20348;-81
2024/03/21 07:10:37;;;;;;;;;;;;;;;11.67;84.25;101619.94;6186676;23;19920;-82
2024/03/21 07:13:04;;;;;;;;;;;;;;;11.82;84.48;101621.41;6185610;23;19950;-80
2024/03/21 07:15:31;;;;;;;;;;;;;;;11.92;84.46;101625.09;6210330;23;19920;-80
2024/03/21 07:17:56;;;;;;;;;;;;;;;11.98;83.54;101631.72;6249212;23;19939;-79
2024/03/21 07:20:23;;;;;;;;;;;;;;;11.83;84.23;101633.75;6248319;23;19920;-80
2024/03/21 07:22:49;;;;;;;;;;;;;;;11.78;84.02;101635.88;6249541;23;19920;-79
2024/03/21 07:25:15;;;;;;;;;;;;;;;11.63;84.93;101640.53;6249314;23;19954;-82
2024/03/21 07:27:42;;;;;;;;;;;;;;;11.71;84.27;101643.47;6249201;23;19919;-79
2024/03/21 07:30:13;;;;;;;;;;;;;;;11.59;83.94;101650.53;6247017;23;20373;-80
2024/03/21 07:32:38;;;;;;;;;;;;;;;11.53;84.51;101644.84;6248063;23;19977;-79
2024/03/21 07:35:05;;;;;;;;;;;;;;;11.49;84.50;101651.34;6247786;23;20315;-80
2024/03/21 07:37:31;;;;;;;;;;;;;;;11.36;84.31;101660.22;6248729;23;19927;-80
2024/03/21 07:40:01;;;;;;;;;;;;;;;11.24;85.38;101665.56;6247975;23;19926;-78
2024/03/21 07:42:26;;;;;;;;;;;;;;;11.14;86.16;101668.03;6249249;23;19946;-78
2024/03/21 07:44:52;;;;;;;;;;;;;;;11.24;85.85;101677.00;6250982;23;19924;-79
2024/03/21 07:47:19;;;;;;;;;;;;;;;11.14;85.74;101679.47;6254844;23;19927;-78
2024/03/21 07:49:45;;;;;;;;;;;;;;;11.10;86.02;101688.63;6254985;23;19924;-79
2024/03/21 07:52:11;;;;;;;;;;;;;;;11.07;86.47;101691.50;6256338;23;19998;-79
2024/03/21 07:54:37;;;;;;;;;;;;;;;11.21;85.72;101697.59;6254264;23;20339;-79
2024/03/21 07:57:03;;;;;;;;;;;;;;;11.19;85.96;101692.41;6253178;23;19950;-80
2024/03/21 07:59:29;;;;;;;;;;;;;;;11.02;86.24;101704.22;6251524;23;19920;-81
2024/03/21 08:01:55;;;;;;;;;;;;;;;10.96;86.58;101706.47;6252028;23;19943;-80
2024/03/21 08:04:22;;;;;;;;;;;;;;;10.96;86.21;101709.13;6251390;23;19923;-80
2024/03/21 08:06:48;;;;;;;;;;;;;;;10.95;86.75;101710.94;6250908;23;19920;-80
2024/03/21 08:09:14;;;;;;;;;;;;;;;10.92;86.69;101697.91;6251471;23;19977;-79
2024/03/21 08:11:40;;;;;;;;;;;;;;;10.93;86.21;101717.28;6250801;23;19919;-80
2024/03/21 08:14:06;;;;;;;;;;;;;;;10.93;86.54;101715.47;6248784;23;19924;-78
2024/03/21 08:16:32;;;;;;;;;;;;;;;10.95;86.02;101718.88;6248909;23;19920;-82
2024/03/21 08:18:58;;;;;;;;;;;;;;;10.88;86.54;101714.94;6250399;23;19967;-79
2024/03/21 08:21:25;;;;;;;;;;;;;;;10.87;86.65;101726.50;6250664;23;19947;-78
2024/03/21 08:23:51;;;;;;;;;;;;;;;11.02;86.03;101724.56;6251390;23;19926;-81
2024/03/21 08:26:18;;;;;;;;;;;;;;;11.12;85.59;101734.41;6248640;23;20356;-79
2024/03/21 08:28:44;;;;;;;;;;;;;;;11.06;85.86;101729.53;6250444;23;19966;-81
2024/03/21 08:31:10;;;;;;;;;;;;;;;11.14;84.25;101734.28;6250420;23;19920;-78
2024/03/21 08:33:36;;;;;;;;;;;;;;;11.25;83.73;101733.50;6248335;23;20360;-80
2024/03/21 08:36:02;;;;;;;;;;;;;;;11.49;82.75;101739.66;6250013;23;19919;-78
2024/03/21 08:38:30;;;;;;;;;;;;;;;11.49;82.19;101744.97;6249772;23;19919;-79
2024/03/21 08:40:55;;;;;;;;;;;;;;;11.39;80.93;101751.91;6250496;23;19946;-78
2024/03/21 08:43:22;;;;;;;;;;;;;;;11.37;80.59;101756.47;6246598;23;19924;-79
2024/03/21 08:45:48;;;;;;;;;;;;;;;11.42;80.35;101764.06;6245992;23;19923;-79
2024/03/21 08:48:15;;;;;;;;;;;;;;;11.33;80.08;101765.59;6248616;23;19923;-80
2024/03/21 08:52:55;;;;;;;;;;;;;;;11.38;79.35;101782.00;5106064;27;19985;-80
2024/03/21 08:55:21;;;;;;;;;;;;;;;11.32;79.41;101785.09;5104834;28;20027;-79
2024/03/21 08:57:48;;;;;;;;;;;;;;;11.34;78.72;101799.06;5106801;28;20362;-79
2024/03/21 09:00:14;;;;;;;;;;;;;;;11.36;79.42;101802.47;5087493;28;20011;-80
2024/03/21 09:02:41;;;;;;;;;;;;;;;11.33;79.42;101797.41;5086898;28;19925;-79
2024/03/21 09:05:06;;;;;;;;;;;;;;;11.53;79.59;101810.06;5109654;22;20066;-82
2024/03/21 09:07:36;;;;;;;;;;;;;;;11.53;78.38;101804.75;5100441;28;20441;-84
2024/03/21 09:10:04;;;;;;;;;;;;;;;11.56;78.05;101798.38;5104029;28;19930;-82
2024/03/21 09:12:33;;;;;;;;;;;;;;;11.58;78.24;101804.44;5106603;28;19924;-82
2024/03/21 09:14:58;;;;;;;;;;;;;;;11.62;78.12;101803.25;5105756;28;19924;-81
2024/03/21 09:17:25;;;;;;;;;;;;;;;11.40;78.89;101801.31;5102548;28;20011;-83
2024/03/21 09:19:50;;;;;;;;;;;;;;;11.61;78.48;101793.59;5101428;28;19924;-82
2024/03/21 09:22:17;;;;;;;;;;;;;;;11.80;77.62;101790.44;5093672;28;20449;-82
2024/03/21 09:24:44;;;;;;;;;;;;;;;11.98;75.09;101797.06;5093939;28;19959;-81
2024/03/21 09:27:11;;;;;;;;;;;;;;;12.08;74.59;101791.91;5090988;28;19929;-84
2024/03/21 09:29:37;;;;;;;;;;;;;;;12.12;74.50;101803.97;5096359;28;19924;-82
2024/03/21 09:32:04;;;;;;;;;;;;;;;12.28;73.33;101803.69;5102526;28;19931;-80
2024/03/21 09:34:29;;;;;;;;;;;;;;;12.48;73.25;101808.31;5099304;28;19940;-82
2024/03/21 09:36:55;;;;;;;;;;;;;;;12.34;73.83;101805.88;5102626;28;19924;-83
2024/03/21 09:39:21;;;;;;;;;;;;;;;12.52;72.72;101808.94;5102529;28;19924;-80
2024/03/21 09:41:53;;;;;;;;;;;;;;;12.48;71.45;101813.63;5103360;28;20397;-83
2024/03/21 09:44:20;;;;;;;;;;;;;;;12.46;71.66;101809.41;5104179;28;19948;-82
2024/03/21 09:46:48;;;;;;;;;;;;;;;12.63;70.81;101806.28;5102730;28;19986;-82
2024/03/21 09:49:14;;;;;;;;;;;;;;;12.38;72.32;101808.16;5104875;28;19935;-83
2024/03/21 09:51:41;;;;;;;;;;;;;;;12.48;71.78;101813.63;5103579;28;19928;-83
2024/03/21 09:54:09;;;;;;;;;;;;;;;12.43;72.39;101813.13;5102562;28;19950;-81
2024/03/21 09:56:35;;;;;;;;;;;;;;;12.46;72.35;101820.88;5102344;28;19924;-80
2024/03/21 09:59:01;;;;;;;;;;;;;;;12.56;71.77;101821.84;5101875;28;19987;-83
2024/03/21 10:01:29;;;;;;;;;;;;;;;12.81;71.55;101820.81;5101968;28;19924;-81
2024/03/21 10:03:56;;;;;;;;;;;;;;;13.08;69.93;101828.44;5092371;28;19938;-84
2024/03/21 10:06:23;;;;;;;;;;;;;;;13.33;67.46;101823.84;5094904;28;19940;-83
2024/03/21 10:08:51;;;;;;;;;;;;;;;13.40;68.00;101827.72;5092494;28;19992;-82
2024/03/21 10:11:17;;;;;;;;;;;;;;;13.47;67.86;101828.06;5091141;28;19944;-80
2024/03/21 10:13:42;;;;;;;;;;;;;;;13.19;68.19;101826.72;5092494;28;19924;-81
2024/03/21 10:16:10;;;;;;;;;;;;;;;13.50;69.02;101825.16;5091308;28;19925;-81
2024/03/21 10:18:38;;;;;;;;;;;;;;;13.56;68.13;101822.81;5092028;28;19941;-81
2024/03/21 10:21:05;;;;;;;;;;;;;;;13.30;68.46;101821.41;5093212;28;20011;-84
2024/03/21 10:23:30;;;;;;;;;;;;;;;13.45;68.07;101827.34;5093557;28;19981;-82
2024/03/21 10:25:57;;;;;;;;;;;;;;;13.53;67.77;101828.41;5096745;28;19912;-85
2024/03/21 10:28:22;;;;;;;;;;;;;;;13.47;67.33;101830.72;5097150;28;19928;-84
2024/03/21 10:30:49;;;;;;;;;;;;;;;13.23;66.46;101836.19;5097627;28;19923;-84
2024/03/21 10:33:16;;;;;;;;;;;;;;;13.43;66.30;101838.09;5097397;28;19912;-85
2024/03/21 10:35:44;;;;;;;;;;;;;;;13.55;65.45;101838.91;5095570;28;19935;-81
2024/03/21 10:38:12;;;;;;;;;;;;;;;13.77;64.52;101852.19;5092777;28;19928;-79
2024/03/21 10:40:39;;;;;;;;;;;;;;;13.79;65.33;101849.38;5092843;28;19933;-82
2024/03/21 10:43:05;;;;;;;;;;;;;;;13.73;64.22;101844.56;5095336;28;20022;-87
2024/03/21 10:45:33;;;;;;;;;;;;;;;13.63;64.58;101853.28;5096827;28;19928;-85
2024/03/21 10:47:59;;;;;;;;;;;;;;;13.72;63.99;101858.84;5097101;28;19924;-81
2024/03/21 10:50:25;;;;;;;;;;;;;;;13.75;63.56;101862.13;5096377;28;19925;-83
2024/03/21 10:52:55;;;;;;;;;;;;;;;13.51;63.87;101866.72;5095194;28;19951;-82
2024/03/21 10:55:22;;;;;;;;;;;;;;;13.53;64.79;101873.63;5094813;28;19924;-82
2024/03/21 10:57:51;;;;;;;;;;;;;;;13.70;65.01;101882.06;5092162;28;19929;-81
2024/03/21 11:00:19;;;;;;;;;;;;;;;13.91;64.86;101880.31;5092685;28;19923;-82
2024/03/21 11:02:47;;;;;;;;;;;;;;;14.08;63.00;101879.78;5092026;28;19992;-83
2024/03/21 11:05:14;;;;;;;;;;;;;;;13.96;62.02;101894.09;5093401;28;19912;-84
2024/03/21 11:07:40;;;;;;;;;;;;;;;13.86;61.21;101891.34;5093029;28;19951;-81
2024/03/21 11:10:08;;;;;;;;;;;;;;;13.75;62.17;101891.38;5090543;28;19956;-82
2024/03/21 11:12:34;;;;;;;;;;;;;;;13.84;63.38;101892.41;5091814;28;20115;-84
2024/03/21 11:15:01;;;;;;;;;;;;;;;13.80;62.25;101888.34;5090401;28;20437;-81
2024/03/21 11:17:26;;;;;;;;;;;;;;;13.46;64.16;101893.69;5091297;28;19935;-81
2024/03/21 11:19:53;;;;;;;;;;;;;;;13.50;63.32;101892.47;5091140;28;19992;-80
2024/03/21 11:22:23;;;;;;;;;;;;;;;13.49;64.04;101889.97;5089462;28;19924;-82
2024/03/21 11:24:50;;;;;;;;;;;;;;;13.46;64.25;101888.38;5090025;28;19924;-81
2024/03/21 11:27:17;;;;;;;;;;;;;;;13.48;64.90;101898.88;5090331;28;19924;-82
2024/03/21 11:29:43;;;;;;;;;;;;;;;13.56;64.23;101893.81;5090653;28;19924;-82
2024/03/21 11:32:09;;;;;;;;;;;;;;;13.82;64.64;101902.34;5090352;28;20112;-82
2024/03/21 11:34:37;;;;;;;;;;;;;;;13.86;63.35;101898.47;5088980;28;19932;-83
2024/03/21 11:37:03;;;;;;;;;;;;;;;13.78;63.68;101898.25;5089229;28;19956;-83
2024/03/21 11:39:35;;;;;;;;;;;;;;;13.68;63.89;101910.59;5089704;28;19929;-82
2024/03/21 11:42:00;;;;;;;;;;;;;;;13.56;64.85;101899.97;5090039;28;19928;-83
2024/03/21 11:44:28;;;;;;;;;;;;;;;13.44;64.92;101903.63;5090188;28;20064;-83
2024/03/21 11:46:55;;;;;;;;;;;;;;;13.41;64.84;101901.19;5089573;28;20086;-80
2024/03/21 11:49:21;;;;;;;;;;;;;;;13.39;64.18;101903.13;5090389;28;19928;-81
2024/03/21 11:51:47;;;;;;;;;;;;;;;13.70;63.65;101903.34;5086848;28;19932;-79
2024/03/21 11:54:15;;;;;;;;;;;;;;;13.61;64.71;101908.41;5086302;28;19954;-81
2024/03/21 11:56:41;;;;;;;;;;;;;;;13.63;63.80;101925.13;5088046;28;19929;-82
2024/03/21 11:59:08;;;;;;;;;;;;;;;13.51;63.92;101917.25;5088121;28;19924;-79
2024/03/21 12:01:36;;;;;;;;;;;;;;;13.77;64.35;101912.53;5087448;28;20000;-83
2024/03/21 12:04:04;;;;;;;;;;;;;;;13.98;62.92;101918.78;5086568;28;19947;-81
2024/03/21 12:06:29;;;;;;;;;;;;;;;13.93;63.69;101923.63;5089095;28;19976;-81
2024/03/21 12:08:56;;;;;;;;;;;;;;;13.91;63.17;101914.91;5086725;28;19932;-81
2024/03/21 12:11:23;;;;;;;;;;;;;;;13.87;63.86;101919.63;5088126;28;19963;-81
2024/03/21 12:13:50;;;;;;;;;;;;;;;14.11;63.07;101918.63;5088443;28;19984;-80
2024/03/21 12:16:16;;;;;;;;;;;;;;;13.85;62.82;101918.94;5089365;28;19932;-82
2024/03/21 12:18:44;;;;;;;;;;;;;;;13.97;63.69;101929.53;5088981;28;19928;-81
2024/03/21 12:21:13;;;;;;;;;;;;;;;13.97;62.79;101922.38;5089515;28;19924;-80
2024/03/21 12:23:42;;;;;;;;;;;;;;;13.76;63.37;101913.50;5089654;28;19928;-80
2024/03/21 12:26:10;;;;;;;;;;;;;;;13.48;63.64;101910.34;5087109;28;20074;-83
2024/03/21 12:28:37;;;;;;;;;;;;;;;13.89;63.43;101919.53;5088135;28;20019;-80
2024/03/21 12:31:05;;;;;;;;;;;;;;;13.91;62.33;101912.25;5086774;28;19931;-78
2024/03/21 12:33:32;;;;;;;;;;;;;;;13.97;60.18;101911.75;5078517;28;20015;-81
2024/03/21 12:35:59;;;;;;;;;;;;;;;14.00;60.44;101910.66;5087818;28;19925;-79
2024/03/21 12:38:26;;;;;;;;;;;;;;;14.01;60.26;101920.34;5088675;28;21134;-82